深圳市莱克讯科技有限公司

网站首页
产品目录
库存查询
联系我们

IC供货销售, 资料, 代换, 替代, 手册, 图纸, 原理图, datasheet, pdf

询价 名称 厂家 封装 资料 批号 描述 起订量 参考价 数量 更新
XC95144XL-5TQG144C XILINX 原厂正规封装 1605+ 代理原包装现货库存(假一罚十)可开增值发票 10589 20170927[10:04:55]
XC95144XL-7CS144I XILINX 原厂正规封装 1605+ 代理原包装现货库存(假一罚十)可开增值发票 10589 20170927[10:04:55]
XC95216-15PQG160C XILINX 原厂正规封装 1605+ 代理原包装现货库存(假一罚十)可开增值发票 10589 20170927[10:04:55]
XC95288XL-10FGG256C XILINX 原厂正规封装 1605+ 代理原包装现货库存(假一罚十)可开增值发票 10589 20170927[10:04:55]
XC95288XL-10PQG208C XILINX 原厂正规封装 1605+ 代理原包装现货库存(假一罚十)可开增值发票 10589 20170927[10:04:55]
XC95288XL-10PQG208I XILINX 原厂正规封装 1605+ 代理原包装现货库存(假一罚十)可开增值发票 10589 20170927[10:04:55]
XC95288XL-10TQG144I XILINX 原厂正规封装 1605+ 代理原包装现货库存(假一罚十)可开增值发票 10589 20170927[10:04:55]
XC95288XL-7TQG144I XILINX 原厂正规封装 1605+ 代理原包装现货库存(假一罚十)可开增值发票 10589 20170927[10:04:55]
XC9536-10PCG44C XILINX 原厂正规封装 1605+ 代理原包装现货库存(假一罚十)可开增值发票 10589 20170927[10:04:55]
XC9536XL-10VQG44I XILINX 原厂正规封装 1605+ 代理原包装现货库存(假一罚十)可开增值发票 10589 20170927[10:04:55]
XC9536XL-5PCG44C XILINX 原厂正规封装 1605+ 代理原包装现货库存(假一罚十)可开增值发票 10589 20170927[10:04:55]
XC9572-15PCG44C XILINX 原厂正规封装 1605+ 代理原包装现货库存(假一罚十)可开增值发票 10589 20170927[10:04:55]
XC9572XL-10TQG100I XILINX 原厂正规封装 1605+ 代理原包装现货库存(假一罚十)可开增值发票 10589 20170927[10:04:55]
XC9572XL-10VQG44C XILINX 原厂正规封装 1605+ 代理原包装现货库存(假一罚十)可开增值发票 10589 20170927[10:04:55]
XC9572XL-10VQG64C XILINX 原厂正规封装 1605+ 代理原包装现货库存(假一罚十)可开增值发票 10589 20170927[10:04:55]
XC9572XL-10VQG64I XILINX 原厂正规封装 1605+ 代理原包装现货库存(假一罚十)可开增值发票 10589 20170927[10:04:55]
XC9572XL-7TQG100I XILINX 原厂正规封装 1605+ 代理原包装现货库存(假一罚十)可开增值发票 10589 20170927[10:04:55]
XCF08PVOG48C XILINX 原厂正规封装 1605+ 代理原包装现货库存(假一罚十)可开增值发票 10589 20170927[10:04:55]
XCF128XFTG64C XILINX 原厂正规封装 1605+ 代理原包装现货库存(假一罚十)可开增值发票 10589 20170927[10:04:55]
XCF16PVOG48C XILINX 原厂正规封装 1605+ 代理原包装现货库存(假一罚十)可开增值发票 10589 20170927[10:04:55]
XCF32PFS48C XILINX 原厂正规封装 1605+ 代理原包装现货库存(假一罚十)可开增值发票 10589 20170927[10:04:55]
XCF32PFSG48C XILINX 原厂正规封装 1605+ 代理原包装现货库存(假一罚十)可开增值发票 10589 20170927[10:04:55]
XCF32PVOG48C XILINX 原厂正规封装 1605+ 代理原包装现货库存(假一罚十)可开增值发票 10589 20170927[10:04:55]
XCR3032XL-10VQG44C XILINX 原厂正规封装 1605+ 代理原包装现货库存(假一罚十)可开增值发票 10589 20170927[10:04:55]
XCR3064XL-10VQG100I XILINX 原厂正规封装 1605+ 代理原包装现货库存(假一罚十)可开增值发票 10589 20170927[10:04:55]
XCR3064XL-10VQG44C XILINX 原厂正规封装 1605+ 代理原包装现货库存(假一罚十)可开增值发票 10589 20170927[10:04:55]
XCR3064XL-10VQG44I XILINX 原厂正规封装 1605+ 代理原包装现货库存(假一罚十)可开增值发票 10589 20170927[10:04:55]
XCR3128XL-10TQG144C XILINX 原厂正规封装 1605+ 代理原包装现货库存(假一罚十)可开增值发票 10589 20170927[10:04:55]
XCR3128XL-10VQG100C XILINX 原厂正规封装 1605+ 代理原包装现货库存(假一罚十)可开增值发票 10589 20170927[10:04:55]
XCR3128XL-10VQG100I XILINX 原厂正规封装 1605+ 代理原包装现货库存(假一罚十)可开增值发票 10589 20170927[10:04:55]
XCR3256XL-10TQG144C XILINX 原厂正规封装 1605+ 代理原包装现货库存(假一罚十)可开增值发票 10589 20170927[10:04:55]
XCR3256XL-10TQG144I XILINX 原厂正规封装 1605+ 代理原包装现货库存(假一罚十)可开增值发票 10589 20170927[10:04:55]
XCS30XL-4VQG100C XILINX 原厂正规封装 1605+ 代理原包装现货库存(假一罚十)可开增值发票 10589 20170927[10:04:55]
XCV1000E-6FGG680C XILINX 原厂正规封装 1605+ 代理原包装现货库存(假一罚十)可开增值发票 10589 20170927[10:04:55]
XCV400E-6FGG676C XILINX 原厂正规封装 1605+ 代理原包装现货库存(假一罚十)可开增值发票 10589 20170927[10:04:55]
XCV600E-6FGG676C XILINX 原厂正规封装 1605+ 代理原包装现货库存(假一罚十)可开增值发票 10589 20170927[10:04:55]
CS4265-CNZ CIRRUSLOG QFN 1610+ 代理原包装现货库存(假一罚十)可开增值发票 14.5 35896 20170927[10:04:55]
CAT9555HV6I-GT2 ON SEMICONDUCTOR QFN 2016+ 深圳ON现货代理库存(只做原装-假一罚十)I2C/SMBus 16-bit GPIO Expander TQFN-24EP 36000 20170927[10:04:55]
MDR762F-T SOSHIN SMD(可开增值发票) 2016+ 深圳代理原装现货库存(只做原装-假一罚十) 1.2 6000 20170927[10:04:55]
TLSR8666ET32 TLK QFN 2016+ 深圳代理原装现货库存(原装现货-假一罚十) 100 12500 20170927[10:04:55]
SKRGARD010 ALPS(觸摸開關 50 mAmps at 12 Volts) SMD 2016+ 深圳原装现货库存-(只做原装-代理库存) 1000 0.32 58955 20170927[10:04:55]
LMP7731MF/NOPB TEXAS-NSC IC OPAMP GP 22MHZ RRO SOT23-5 2016+ 深圳代理原装现货库存(只做现货-假一罚十) 1000 8.5 8000 20170927[10:04:55]
S3P72E8DZZ-C0C8 SAMSUNG SAN 2016+ 深圳公司原装现货库存(只做原装-现货库存) 360 10 5478 20170927[10:04:55]
HWS1000-24 TDK-LAMBDA AMERICAS INC 交換式電源 1056W 24V 44A AC/DC with cover 2016+ PSU, ENCLOSED, 24V, 44A, 1056W; Power Supply Output Type:Adjustable, Fixed; Input Voltage AC Min:85V; Input Voltage AC Max:265V; Output Power Max:1056W; Output Voltage Nom.:24V; Output Current Max:44A; Product Range:-; Applications:Industrial, Lighting, Telecom; Approval Bodies:CE, CSA, EN, UL; Efficiency:87%; External Depth:82mm; External Length / Height:126.5mm; External Width:240mm; Height:126.5mm; Hold Up Time:20ms; Input Frequency:63Hz; Length:82mm; Line Regulation:96mV; Load Regulation:150mV; No. of O 1 125 20170927[10:04:55]
2SA1362-Y TE85L F TOSHIBA SOT23 1611+ 代理原包装现货库存(假一罚十)可开增值发票 35568 20170927[10:04:55]
2SA1586-Y(T5L H TOSHIBA SOT323 1611+ 代理原包装现货库存(假一罚十)可开增值发票 35568 20170927[10:04:55]
TCUT1300X01 VISHAY SMD4 1650+ 深圳原装代理(VISHAY)只做正品-假一罚十 100 5.6 12500 20170927[10:04:55]
MMSZ4692-V-GS08 VISHAY SOD-123 1620+ 深圳原装代理(VISHAY)现货正品-假一罚十 5000 356895 20170927[10:04:55]
CRT0603-BW-4751ELF BOURNS 薄膜電阻器 - SMD CHIP RESISTOR Precision 2016+ 薄膜電阻器 - SMD CHIP RESISTOR Precision香港原装现货库存热卖-假一赔十 5000 1.28 800000 20170927[10:04:55]
更多型号,未能尽录,请使用搜索功能




Vistor:2483518
 Since:20100408
粤ICP备05053605      Powered by ICminer.com